Time;durP1;ratioP1;P1;durP2;ratioP2;P2;SDS_P1;SDS_P2;PMS_P1;PMS_P2;Temp;Humidity;BMP_temperature;BMP_pressure;BME280_temperature;BME280_humidity;BME280_pressure;Samples;Min_cycle;Max_cycle;Signal;HPM_P1;HPM_P2
2024/01/15 00:00:41;;;;;;;16.00;2.33;;;1.90;99.90;;;;;;5071209;28;20048;-88
2024/01/15 00:03:07;;;;;;;10.23;1.27;;;2.00;99.90;;;;;;5071305;28;20135;-89
2024/01/15 00:05:32;;;;;;;10.00;1.58;;;2.00;99.90;;;;;;5056031;28;20194;-89
2024/01/15 00:07:58;;;;;;;14.32;2.17;;;2.00;99.90;;;;;;5051265;28;20044;-91
2024/01/15 00:10:24;;;;;;;12.20;2.13;;;1.00;99.90;;;;;;5051875;28;20373;-90
2024/01/15 00:12:49;;;;;;;9.80;2.10;;;2.10;99.90;;;;;;5050959;28;20059;-89
2024/01/15 00:15:15;;;;;;;11.02;1.38;;;2.10;99.90;;;;;;5050182;28;20040;-89
2024/01/15 00:17:41;;;;;;;14.60;2.88;;;2.20;99.90;;;;;;5051029;28;20052;-87
2024/01/15 00:20:07;;;;;;;11.50;1.77;;;2.20;99.90;;;;;;5061806;28;20121;-88
2024/01/15 00:22:35;;;;;;;12.48;1.48;;;2.20;99.90;;;;;;5067601;28;20145;-87
2024/01/15 00:25:01;;;;;;;13.02;1.65;;;2.20;99.90;;;;;;5071142;28;20044;-91
2024/01/15 00:27:26;;;;;;;11.60;1.63;;;2.20;99.90;;;;;;5071335;28;20045;-88
2024/01/15 00:29:53;;;;;;;8.85;1.42;;;2.20;99.90;;;;;;5064719;28;20126;-90
2024/01/15 00:32:20;;;;;;;10.23;2.08;;;2.20;99.90;;;;;;5051372;28;20568;-88
2024/01/15 00:34:46;;;;;;;15.63;1.67;;;2.20;99.90;;;;;;5051393;28;20435;-91
2024/01/15 00:37:11;;;;;;;11.20;1.27;;;2.40;99.90;;;;;;5050924;28;20052;-89
2024/01/15 00:39:37;;;;;;;9.95;1.45;;;2.20;99.90;;;;;;5050914;28;20408;-89
2024/01/15 00:42:03;;;;;;;4.65;0.82;;;2.20;99.90;;;;;;5053261;28;20051;-87
2024/01/15 00:44:28;;;;;;;8.50;1.17;;;2.20;99.90;;;;;;5054802;28;20068;-89
2024/01/15 00:46:54;;;;;;;6.43;0.90;;;2.20;99.90;;;;;;5053531;28;20049;-89
2024/01/15 00:49:20;;;;;;;3.38;0.50;;;2.30;99.90;;;;;;5050242;28;20055;-89
2024/01/15 00:51:45;;;;;;;5.80;0.80;;;2.20;99.90;;;;;;5052017;28;20094;-90
2024/01/15 00:54:11;;;;;;;5.57;0.55;;;2.20;99.90;;;;;;5052394;28;20072;-89
2024/01/15 00:56:37;;;;;;;9.75;0.88;;;2.20;99.90;;;;;;5051593;28;20076;-87
2024/01/15 00:59:02;;;;;;;8.25;1.00;;;2.10;99.90;;;;;;5052189;28;20444;-91
2024/01/15 01:01:28;;;;;;;8.80;1.45;;;2.60;99.90;;;;;;5051638;28;20056;-89
2024/01/15 01:03:54;;;;;;;8.30;0.88;;;2.70;99.90;;;;;;5052567;28;20037;-92
2024/01/15 01:06:19;;;;;;;11.13;0.90;;;2.00;99.90;;;;;;5076070;28;20115;-89
2024/01/15 01:08:45;;;;;;;8.35;1.00;;;2.00;99.90;;;;;;5074243;28;20380;-89
2024/01/15 01:11:15;;;;;;;4.75;0.65;;;1.90;99.90;;;;;;5070377;28;20048;-91
2024/01/15 01:13:41;;;;;;;5.03;0.75;;;1.90;99.90;;;;;;5055176;28;20053;-88
2024/01/15 01:16:07;;;;;;;6.45;0.60;;;1.90;99.90;;;;;;5038449;28;20041;-88
2024/01/15 01:18:32;;;;;;;6.03;0.70;;;1.90;99.90;;;;;;5055194;28;20088;-90
2024/01/15 01:20:58;;;;;;;6.53;0.90;;;1.90;99.90;;;;;;5071461;28;20484;-88
2024/01/15 01:23:24;;;;;;;11.02;0.82;;;2.00;99.90;;;;;;5074446;28;20711;-90
2024/01/15 01:25:49;;;;;;;10.82;1.05;;;2.00;99.90;;;;;;5075000;28;20056;-91
2024/01/15 01:28:15;;;;;;;7.28;1.20;;;2.00;99.90;;;;;;5074533;28;20053;-91
2024/01/15 01:30:41;;;;;;;10.00;1.17;;;2.00;99.90;;;;;;5074335;28;20044;-89
2024/01/15 01:33:06;;;;;;;7.18;0.88;;;2.00;99.90;;;;;;5074690;28;20102;-92
2024/01/15 01:35:32;;;;;;;11.98;1.38;;;2.00;99.90;;;;;;5059682;28;20215;-91
2024/01/15 01:37:58;;;;;;;11.45;1.13;;;2.00;99.90;;;;;;5037318;28;20071;-90
2024/01/15 01:40:23;;;;;;;8.52;1.30;;;2.00;99.90;;;;;;5069688;28;20053;-90
2024/01/15 01:42:49;;;;;;;8.68;1.10;;;1.90;99.90;;;;;;5072956;28;20048;-90
2024/01/15 01:45:15;;;;;;;7.43;1.60;;;2.30;99.90;;;;;;5073092;28;20048;-89
2024/01/15 01:47:41;;;;;;;8.75;0.80;;;1.90;99.90;;;;;;5073161;28;20492;-88
2024/01/15 01:50:07;;;;;;;9.02;1.45;;;2.00;99.90;;;;;;5072503;28;20037;-89
2024/01/15 01:52:34;;;;;;;13.30;1.58;;;2.00;99.90;;;;;;5071627;28;20203;-90
2024/01/15 01:55:01;;;;;;;11.52;1.05;;;2.30;99.90;;;;;;5061931;28;20556;-86
2024/01/15 01:57:27;;;;;;;6.43;1.30;;;2.10;99.90;;;;;;5053369;28;20138;-88
2024/01/15 01:59:53;;;;;;;10.60;1.40;;;2.10;99.90;;;;;;5052555;28;20110;-88
2024/01/15 02:02:20;;;;;;;6.85;1.15;;;2.40;99.90;;;;;;5052845;28;20045;-89
2024/01/15 02:04:48;;;;;;;10.50;1.10;;;2.10;99.90;;;;;;5061552;28;20060;-89
2024/01/15 02:07:13;;;;;;;6.43;0.93;;;2.10;99.90;;;;;;5053314;28;20138;-89
2024/01/15 02:09:39;;;;;;;7.45;0.93;;;2.10;99.90;;;;;;5052932;28;20084;-90
2024/01/15 02:12:05;;;;;;;13.48;0.93;;;3.10;99.90;;;;;;5052970;28;20056;-89
2024/01/15 02:14:31;;;;;;;5.75;0.93;;;2.10;99.90;;;;;;5053104;28;20493;-88
2024/01/15 02:16:57;;;;;;;6.35;0.93;;;2.10;99.90;;;;;;5036549;28;20095;-86
2024/01/15 02:19:22;;;;;;;9.18;0.82;;;2.10;99.90;;;;;;5056176;28;20047;-90
2024/01/15 02:21:48;;;;;;;11.60;1.23;;;2.10;99.90;;;;;;5072310;28;20053;-88
2024/01/15 02:24:14;;;;;;;9.23;0.57;;;2.10;99.90;;;;;;5073118;28;20684;-89
2024/01/15 02:26:39;;;;;;;9.70;0.60;;;2.10;99.90;;;;;;5073187;28;20522;-88
2024/01/15 02:29:08;;;;;;;8.63;0.95;;;2.70;99.90;;;;;;5072286;28;20561;-89
2024/01/15 02:31:35;;;;;;;7.93;0.85;;;2.10;99.90;;;;;;5071110;28;20044;-91
2024/01/15 02:34:01;;;;;;;7.70;1.10;;;2.00;99.90;;;;;;5071459;28;20048;-89
2024/01/15 02:36:26;;;;;;;12.57;1.45;;;2.00;99.90;;;;;;5056530;28;20106;-89
2024/01/15 02:38:52;;;;;;;10.05;1.40;;;2.00;99.90;;;;;;5056274;28;20060;-90
2024/01/15 02:41:18;;;;;;;6.38;1.23;;;2.00;99.90;;;;;;5065228;28;20051;-90
2024/01/15 02:43:43;;;;;;;14.77;1.75;;;2.00;99.90;;;;;;5068793;28;20045;-91
2024/01/15 02:46:09;;;;;;;11.43;1.38;;;2.00;99.90;;;;;;5052401;28;20064;-91
2024/01/15 02:48:35;;;;;;;14.38;1.33;;;2.00;99.90;;;;;;5052897;28;20131;-90
2024/01/15 02:51:02;;;;;;;8.43;1.35;;;2.80;99.90;;;;;;5048027;28;20060;-90
2024/01/15 02:53:27;;;;;;;16.85;2.45;;;1.40;99.90;;;;;;5072076;28;20059;-89
2024/01/15 02:55:53;;;;;;;11.43;1.42;;;2.10;99.90;;;;;;5073336;28;20044;-90
2024/01/15 02:58:19;;;;;;;14.68;1.40;;;2.10;99.90;;;;;;5073450;28;20579;-91
2024/01/15 03:00:46;;;;;;;13.05;2.10;;;2.10;99.90;;;;;;5073189;28;20504;-89
2024/01/15 03:03:12;;;;;;;11.55;2.60;;;2.30;99.90;;;;;;5068986;28;20040;-89
2024/01/15 03:05:37;;;;;;;7.50;1.50;;;2.20;99.90;;;;;;5060063;28;20037;-89
2024/01/15 03:08:03;;;;;;;13.68;1.70;;;2.10;99.90;;;;;;5059453;28;20056;-88
2024/01/15 03:10:29;;;;;;;16.27;1.48;;;2.20;99.90;;;;;;5058475;28;20412;-91
2024/01/15 03:12:54;;;;;;;9.52;1.88;;;2.20;99.90;;;;;;5056351;28;20208;-88
2024/01/15 03:15:20;;;;;;;12.57;2.00;;;2.20;99.90;;;;;;5052981;28;20037;-90
2024/01/15 03:17:45;;;;;;;15.90;1.48;;;2.20;99.90;;;;;;5052825;28;20040;-91
2024/01/15 03:20:12;;;;;;;11.07;1.13;;;2.10;99.90;;;;;;5052833;28;20076;-90
2024/01/15 03:22:37;;;;;;;11.77;1.67;;;2.10;99.90;;;;;;5052070;28;20061;-89
2024/01/15 03:25:04;;;;;;;10.63;1.67;;;2.10;99.90;;;;;;5051788;28;20133;-89
2024/01/15 03:27:29;;;;;;;7.35;1.20;;;2.10;99.90;;;;;;5050861;28;20075;-90
2024/01/15 03:29:55;;;;;;;15.38;1.85;;;2.10;99.90;;;;;;5052233;28;20048;-90
2024/01/15 03:32:21;;;;;;;8.80;1.50;;;2.30;99.90;;;;;;5051609;28;20041;-88
2024/01/15 03:34:47;;;;;;;9.75;1.10;;;2.00;99.90;;;;;;5051133;28;20105;-90
2024/01/15 03:37:13;;;;;;;16.05;1.98;;;2.00;99.90;;;;;;5051094;28;20214;-88
2024/01/15 03:39:39;;;;;;;10.68;1.63;;;2.00;99.90;;;;;;5050996;28;20049;-90
2024/01/15 03:42:04;;;;;;;8.35;1.20;;;2.00;99.90;;;;;;5051204;28;20048;-88
2024/01/15 03:44:30;;;;;;;11.30;1.67;;;2.00;99.90;;;;;;5051301;28;20048;-90
2024/01/15 03:46:56;;;;;;;14.63;1.70;;;1.90;99.90;;;;;;5050701;28;20055;-90
2024/01/15 03:49:21;;;;;;;15.95;1.33;;;1.90;99.90;;;;;;5051388;28;20084;-90
2024/01/15 03:51:47;;;;;;;13.05;1.70;;;1.90;99.90;;;;;;5050680;28;20052;-90
2024/01/15 03:54:13;;;;;;;10.60;1.70;;;2.70;99.90;;;;;;5051054;28;20056;-87
2024/01/15 03:56:38;;;;;;;9.85;1.35;;;1.90;99.90;;;;;;5055454;28;20032;-91
2024/01/15 03:59:04;;;;;;;11.52;1.77;;;1.90;99.90;;;;;;5060992;28;20043;-89
2024/01/15 04:01:29;;;;;;;12.38;1.50;;;1.90;99.90;;;;;;5050469;28;20052;-88
2024/01/15 04:03:55;;;;;;;14.75;1.70;;;1.90;99.90;;;;;;5059816;28;20045;-88
2024/01/15 04:06:21;;;;;;;11.57;1.23;;;2.00;99.90;;;;;;5065248;28;20476;-90
2024/01/15 04:08:46;;;;;;;13.23;2.42;;;2.00;99.90;;;;;;5069916;28;20044;-90
2024/01/15 04:11:12;;;;;;;11.38;1.55;;;2.00;99.90;;;;;;5070615;28;20059;-89
2024/01/15 04:13:38;;;;;;;13.57;1.45;;;2.10;99.90;;;;;;5046785;28;20052;-89
2024/01/15 04:16:04;;;;;;;10.35;1.98;;;2.10;99.90;;;;;;5050290;28;20082;-91
2024/01/15 04:18:30;;;;;;;10.55;1.55;;;2.10;99.90;;;;;;5050927;28;20053;-89
2024/01/15 04:20:55;;;;;;;12.75;1.75;;;2.10;99.90;;;;;;5065611;28;20179;-89
2024/01/15 04:23:21;;;;;;;7.88;0.95;;;2.20;99.90;;;;;;5069632;28;20064;-88
2024/01/15 04:25:47;;;;;;;12.68;1.10;;;2.20;99.90;;;;;;5047008;28;20051;-88
2024/01/15 04:28:12;;;;;;;13.50;1.20;;;2.30;99.90;;;;;;5050084;28;20048;-88
2024/01/15 04:30:38;;;;;;;7.95;1.00;;;2.30;99.90;;;;;;5049402;28;20049;-88
2024/01/15 04:33:04;;;;;;;12.40;1.45;;;2.40;99.90;;;;;;5070466;28;20048;-88
2024/01/15 04:35:31;;;;;;;9.95;1.50;;;2.30;99.90;;;;;;5042007;28;20457;-90
2024/01/15 04:37:56;;;;;;;7.93;0.85;;;2.30;99.90;;;;;;5069855;28;20129;-87
2024/01/15 04:40:22;;;;;;;11.82;1.05;;;2.30;99.90;;;;;;5053597;28;20084;-87
2024/01/15 04:42:48;;;;;;;5.70;0.75;;;2.20;99.90;;;;;;5054655;28;20400;-89
2024/01/15 04:45:13;;;;;;;7.20;0.70;;;2.20;99.90;;;;;;5054725;28;20045;-89
2024/01/15 04:47:39;;;;;;;9.38;2.20;;;2.10;99.90;;;;;;5058913;28;20047;-88
2024/01/15 04:50:05;;;;;;;6.15;0.70;;;2.10;99.90;;;;;;5074186;28;20076;-87
2024/01/15 04:52:31;;;;;;;6.63;0.88;;;2.10;99.90;;;;;;5074874;28;20078;-88
2024/01/15 04:54:57;;;;;;;5.68;0.80;;;2.00;99.90;;;;;;5063203;28;20072;-89
2024/01/15 04:57:23;;;;;;;5.80;0.52;;;1.90;99.90;;;;;;5054904;28;20527;-92
2024/01/15 04:59:48;;;;;;;5.40;0.88;;;1.90;99.90;;;;;;5038225;28;20048;-89
2024/01/15 05:02:14;;;;;;;4.38;0.52;;;1.90;99.90;;;;;;5054122;28;20052;-91
2024/01/15 05:04:39;;;;;;;6.20;0.63;;;2.90;99.90;;;;;;5054306;28;20048;-91
2024/01/15 05:07:05;;;;;;;3.10;0.75;;;1.20;99.90;;;;;;5059179;28;20044;-91
2024/01/15 05:09:31;;;;;;;4.18;0.50;;;2.00;99.90;;;;;;5064842;28;20037;-89
2024/01/15 05:11:57;;;;;;;4.13;0.60;;;1.80;99.90;;;;;;5074759;28;20048;-88
2024/01/15 05:14:22;;;;;;;6.00;0.90;;;1.80;99.90;;;;;;5065870;28;20059;-88
2024/01/15 05:16:49;;;;;;;6.97;0.75;;;1.70;99.90;;;;;;5053353;28;20052;-89
2024/01/15 05:19:15;;;;;;;4.47;0.63;;;1.70;99.90;;;;;;5053580;28;20416;-90
2024/01/15 05:21:41;;;;;;;3.88;0.60;;;1.70;99.90;;;;;;5053440;28;20057;-91
2024/01/15 05:24:07;;;;;;;4.57;0.73;;;1.70;99.90;;;;;;5056912;28;20048;-89
2024/01/15 05:26:33;;;;;;;5.50;0.70;;;1.60;99.90;;;;;;5066573;28;20055;-89
2024/01/15 05:28:59;;;;;;;3.65;1.00;;;1.60;99.90;;;;;;5053926;28;20045;-90
2024/01/15 05:31:25;;;;;;;3.22;0.65;;;1.60;99.90;;;;;;5053382;28;20408;-89
2024/01/15 05:33:50;;;;;;;7.43;0.60;;;1.60;99.90;;;;;;5059543;28;20040;-91
2024/01/15 05:36:16;;;;;;;4.20;0.70;;;1.70;99.90;;;;;;5068452;28;20041;-90
2024/01/15 05:38:41;;;;;;;7.18;1.13;;;1.70;99.90;;;;;;5067464;28;20479;-90
2024/01/15 05:41:07;;;;;;;4.03;0.50;;;1.80;99.90;;;;;;5056309;28;20416;-89
2024/01/15 05:43:33;;;;;;;7.18;0.70;;;1.70;99.90;;;;;;5073550;28;20387;-88
2024/01/15 05:45:59;;;;;;;9.27;0.90;;;1.70;99.90;;;;;;5065090;28;20048;-91
2024/01/15 05:48:24;;;;;;;4.75;0.73;;;1.70;99.90;;;;;;5071329;28;20408;-88
2024/01/15 05:50:50;;;;;;;8.32;1.35;;;1.70;99.90;;;;;;5065349;28;20049;-90
2024/01/15 05:53:15;;;;;;;10.27;1.20;;;1.60;99.90;;;;;;5053242;28;20136;-90
2024/01/15 05:55:41;;;;;;;11.43;0.95;;;1.60;99.90;;;;;;5052664;28;20056;-90
2024/01/15 05:58:07;;;;;;;12.27;1.10;;;1.60;99.90;;;;;;5053778;28;20052;-89
2024/01/15 06:00:35;;;;;;;13.88;1.73;;;1.60;99.90;;;;;;5046472;28;20127;-88
2024/01/15 06:03:00;;;;;;;5.95;2.20;;;1.60;99.90;;;;;;5047220;28;20052;-89
2024/01/15 06:05:26;;;;;;;6.82;1.10;;;2.70;99.90;;;;;;5062162;28;20041;-89
2024/01/15 06:07:52;;;;;;;13.13;1.35;;;1.50;99.90;;;;;;5075128;28;20033;-90
2024/01/15 06:10:17;;;;;;;6.30;1.00;;;1.50;99.90;;;;;;5062032;28;20124;-88
2024/01/15 06:12:44;;;;;;;9.45;1.13;;;1.50;99.90;;;;;;5055045;28;20092;-88
2024/01/15 06:15:10;;;;;;;7.03;0.95;;;1.50;99.90;;;;;;5068108;28;20089;-90
2024/01/15 06:17:35;;;;;;;10.55;1.25;;;1.50;99.90;;;;;;5067834;28;20045;-89
2024/01/15 06:20:03;;;;;;;15.00;1.20;;;2.50;99.90;;;;;;5061436;28;20049;-86
2024/01/15 06:22:29;;;;;;;8.38;1.50;;;1.50;99.90;;;;;;5044559;28;20483;-90
2024/01/15 06:25:02;;;;;;;8.68;1.38;;;1.50;99.90;;;;;;5063237;28;20052;-88
2024/01/15 06:27:28;;;;;;;7.72;0.98;;;1.50;99.90;;;;;;5071093;28;20056;-91
2024/01/15 06:29:55;;;;;;;9.02;1.02;;;1.60;99.90;;;;;;5083109;28;20068;-90
2024/01/15 06:32:24;;;;;;;12.30;1.27;;;0.90;99.90;;;;;;5053076;28;20060;-91
2024/01/15 06:34:50;;;;;;;8.27;1.52;;;1.60;99.90;;;;;;5057897;28;20084;-91
2024/01/15 06:37:20;;;;;;;7.15;0.85;;;2.50;99.90;;;;;;5057668;28;20423;-91
2024/01/15 06:39:46;;;;;;;7.90;1.55;;;1.70;99.90;;;;;;5056477;28;20055;-87
2024/01/15 06:42:11;;;;;;;7.45;1.42;;;1.70;99.90;;;;;;5041194;28;20405;-89
2024/01/15 06:44:37;;;;;;;10.98;1.10;;;1.60;99.90;;;;;;5057588;28;20437;-87
2024/01/15 06:47:03;;;;;;;10.57;1.45;;;1.60;99.90;;;;;;5037377;28;20055;-87
2024/01/15 06:49:29;;;;;;;16.45;2.45;;;1.60;99.90;;;;;;5054727;28;20080;-91
2024/01/15 06:51:55;;;;;;;8.32;1.25;;;2.10;99.90;;;;;;5046412;28;20123;-90
2024/01/15 06:54:21;;;;;;;20.90;2.70;;;1.60;99.90;;;;;;5073548;28;20052;-90
2024/01/15 06:56:47;;;;;;;8.02;1.38;;;1.50;99.90;;;;;;5071185;28;20043;-90
2024/01/15 06:59:12;;;;;;;13.02;1.70;;;1.50;99.90;;;;;;5070347;28;20115;-88
2024/01/15 07:01:38;;;;;;;15.40;1.98;;;2.50;99.90;;;;;;5057779;28;20041;-85
2024/01/15 07:04:04;;;;;;;12.95;1.60;;;1.50;99.90;;;;;;5053641;28;20398;-82
2024/01/15 07:06:30;;;;;;;8.48;1.48;;;1.50;99.90;;;;;;5060772;28;20050;-89
2024/01/15 07:08:56;;;;;;;13.00;1.60;;;1.50;99.90;;;;;;5064610;28;20454;-94
2024/01/15 07:11:22;;;;;;;12.18;1.05;;;1.50;99.90;;;;;;5076985;28;20049;-93
2024/01/15 07:13:47;;;;;;;9.50;1.73;;;1.50;99.90;;;;;;5071373;28;20033;-90
2024/01/15 07:16:13;;;;;;;15.35;1.65;;;1.70;99.90;;;;;;5068463;28;20037;-90
2024/01/15 07:18:39;;;;;;;11.52;1.80;;;1.50;99.90;;;;;;5073548;28;20044;-90
2024/01/15 07:21:05;;;;;;;14.00;1.40;;;1.50;99.90;;;;;;5070735;28;20061;-89
2024/01/15 07:23:34;;;;;;;10.98;1.30;;;1.50;99.90;;;;;;5054124;28;20053;-89
2024/01/15 07:25:59;;;;;;;15.90;1.90;;;1.80;99.90;;;;;;5061686;28;20052;-87
2024/01/15 07:28:25;;;;;;;8.43;1.10;;;1.50;99.90;;;;;;5061249;28;20037;-90
2024/01/15 07:30:52;;;;;;;7.53;1.00;;;1.50;99.90;;;;;;5061835;28;20484;-89
2024/01/15 07:33:17;;;;;;;9.05;1.00;;;1.50;99.90;;;;;;5053383;28;20132;-87
2024/01/15 07:35:43;;;;;;;13.02;1.80;;;1.50;99.90;;;;;;5062182;28;20499;-87
2024/01/15 07:38:10;;;;;;;10.57;1.27;;;1.40;99.90;;;;;;5070387;28;20071;-84
2024/01/15 07:40:36;;;;;;;8.63;1.52;;;1.40;99.90;;;;;;5070127;28;20052;-87
2024/01/15 07:43:02;;;;;;;12.95;1.50;;;2.10;99.90;;;;;;5070098;28;20045;-87
2024/01/15 07:45:28;;;;;;;11.93;1.40;;;1.40;99.90;;;;;;5070660;28;20044;-85
2024/01/15 07:47:53;;;;;;;13.05;1.98;;;1.40;99.90;;;;;;5071460;28;20664;-86
2024/01/15 07:50:19;;;;;;;13.18;1.23;;;1.40;99.90;;;;;;5072197;28;20427;-87
2024/01/15 07:52:46;;;;;;;13.57;1.38;;;1.40;99.90;;;;;;5069439;28;20047;-86
2024/01/15 07:55:11;;;;;;;15.07;2.33;;;1.40;99.90;;;;;;5053554;28;20107;-83
2024/01/15 07:57:37;;;;;;;20.13;1.95;;;2.20;99.90;;;;;;5051514;28;20434;-83
2024/01/15 08:00:05;;;;;;;15.93;1.83;;;1.40;99.90;;;;;;5065832;28;20465;-82
2024/01/15 08:02:32;;;;;;;9.05;2.45;;;1.50;99.90;;;;;;5064625;28;20057;-84
2024/01/15 08:04:58;;;;;;;12.35;2.00;;;1.50;99.90;;;;;;5070560;28;20051;-83
2024/01/15 08:07:25;;;;;;;9.57;1.13;;;1.70;99.90;;;;;;5054798;28;20057;-83
2024/01/15 08:09:52;;;;;;;5.78;0.90;;;1.60;99.90;;;;;;5050691;28;20052;-85
2024/01/15 08:12:18;;;;;;;10.90;1.38;;;1.60;99.90;;;;;;5050959;28;20052;-86
2024/01/15 08:14:43;;;;;;;9.35;1.05;;;1.60;99.90;;;;;;5050172;28;20060;-85
2024/01/15 08:17:09;;;;;;;13.40;1.88;;;1.60;99.90;;;;;;5050752;28;20044;-87
2024/01/15 08:19:35;;;;;;;7.65;1.42;;;1.60;99.90;;;;;;5052370;28;20045;-85
2024/01/15 08:22:00;;;;;;;9.63;1.52;;;1.60;99.90;;;;;;5040587;28;20053;-84
2024/01/15 08:24:26;;;;;;;10.82;1.48;;;1.60;99.90;;;;;;5050133;28;20040;-83
2024/01/15 08:26:51;;;;;;;8.82;1.05;;;1.60;99.90;;;;;;5050249;28;20130;-84
2024/01/15 08:29:18;;;;;;;7.22;1.10;;;1.60;99.90;;;;;;5057770;28;20476;-83
2024/01/15 08:31:44;;;;;;;7.72;1.20;;;2.40;99.90;;;;;;5050928;28;20048;-83
2024/01/15 08:34:10;;;;;;;8.68;1.13;;;1.80;99.90;;;;;;5061136;28;20382;-85
2024/01/15 08:36:36;;;;;;;10.07;1.02;;;1.60;99.90;;;;;;5050816;28;20139;-84
2024/01/15 08:39:03;;;;;;;9.45;1.02;;;1.60;99.90;;;;;;5055610;28;20090;-84
2024/01/15 08:41:31;;;;;;;11.77;0.98;;;1.60;99.90;;;;;;5050922;28;20048;-84
2024/01/15 08:43:56;;;;;;;7.85;1.13;;;1.60;99.90;;;;;;5051189;28;20111;-84
2024/01/15 08:46:22;;;;;;;9.35;1.00;;;1.60;99.90;;;;;;5050808;28;20497;-84
2024/01/15 08:48:48;;;;;;;6.45;0.93;;;1.60;99.90;;;;;;5051439;28;20049;-83
2024/01/15 08:51:13;;;;;;;11.63;1.02;;;1.60;99.90;;;;;;5050508;28;20111;-83
2024/01/15 08:53:39;;;;;;;8.98;1.65;;;1.70;99.90;;;;;;5056085;28;20119;-86
2024/01/15 08:56:05;;;;;;;10.25;1.00;;;2.00;99.90;;;;;;5050143;28;20492;-88
2024/01/15 08:58:31;;;;;;;9.98;1.45;;;1.80;99.90;;;;;;5058995;28;20048;-85
2024/01/15 09:00:57;;;;;;;6.97;0.90;;;1.80;99.90;;;;;;5049614;28;20545;-87
2024/01/15 09:03:22;;;;;;;11.25;1.17;;;1.80;99.90;;;;;;5063832;28;20077;-85
2024/01/15 09:05:49;;;;;;;8.43;1.00;;;1.80;99.90;;;;;;5058660;28;20043;-87
2024/01/15 09:08:15;;;;;;;8.60;1.67;;;1.80;99.90;;;;;;5049084;28;20049;-86
2024/01/15 09:10:41;;;;;;;8.48;1.10;;;1.90;99.90;;;;;;5049126;28;20056;-88
2024/01/15 09:13:08;;;;;;;4.40;0.80;;;1.90;99.90;;;;;;5049386;28;20576;-88
2024/01/15 09:15:33;;;;;;;5.22;0.80;;;2.00;99.90;;;;;;5049141;28;20052;-88
2024/01/15 09:18:00;;;;;;;7.25;0.85;;;2.30;99.90;;;;;;5049293;28;20527;-88
2024/01/15 09:20:27;;;;;;;6.43;1.35;;;2.10;99.90;;;;;;5049073;28;20092;-86
2024/01/15 09:22:52;;;;;;;6.90;1.55;;;2.10;99.90;;;;;;5049000;28;20053;-85
2024/01/15 09:25:19;;;;;;;6.15;0.90;;;2.10;99.90;;;;;;5054013;28;20044;-88
2024/01/15 09:27:44;;;;;;;5.25;0.88;;;2.10;99.90;;;;;;5053044;28;20048;-87
2024/01/15 09:30:11;;;;;;;5.97;0.98;;;2.10;99.90;;;;;;5036341;28;20056;-87
2024/01/15 09:32:36;;;;;;;4.45;0.77;;;2.10;99.90;;;;;;5052987;28;20056;-86
2024/01/15 09:35:02;;;;;;;4.25;0.70;;;2.10;99.90;;;;;;5052680;28;20041;-88
2024/01/15 09:37:28;;;;;;;8.85;1.35;;;2.10;99.90;;;;;;5052815;28;20048;-87
2024/01/15 09:39:55;;;;;;;6.15;0.68;;;2.10;99.90;;;;;;5053787;28;20381;-87
2024/01/15 09:42:23;;;;;;;6.38;1.13;;;2.00;99.90;;;;;;5053880;28;20052;-89
2024/01/15 09:44:48;;;;;;;4.82;0.82;;;2.60;99.90;;;;;;5036848;28;20049;-89
2024/01/15 09:47:16;;;;;;;4.45;0.60;;;2.00;99.90;;;;;;5053417;28;20071;-88
2024/01/15 09:49:42;;;;;;;5.30;0.73;;;2.10;99.90;;;;;;5065369;28;20056;-88
2024/01/15 09:52:09;;;;;;;5.05;0.50;;;2.10;99.90;;;;;;5072434;28;20143;-87
2024/01/15 09:54:34;;;;;;;6.15;1.20;;;2.10;99.90;;;;;;5065583;28;20428;-86
2024/01/15 09:57:01;;;;;;;10.20;0.80;;;2.10;99.90;;;;;;5052762;28;20049;-86
2024/01/15 09:59:28;;;;;;;5.70;1.08;;;2.00;99.90;;;;;;5052878;28;20056;-86
2024/01/15 10:01:55;;;;;;;5.63;0.90;;;2.00;99.90;;;;;;5035767;28;20092;-88
2024/01/15 10:04:21;;;;;;;6.25;1.13;;;2.00;99.90;;;;;;5052412;28;20140;-86
2024/01/15 10:06:47;;;;;;;8.85;1.17;;;1.90;99.90;;;;;;5051712;28;20475;-86
2024/01/15 10:09:16;;;;;;;9.25;0.93;;;2.50;99.90;;;;;;5052584;28;20057;-86
2024/01/15 10:11:43;;;;;;;7.25;1.02;;;1.90;99.90;;;;;;5052993;28;20131;-84
2024/01/15 10:14:12;;;;;;;10.73;1.20;;;2.20;99.90;;;;;;5068579;28;20463;-85
2024/01/15 10:16:39;;;;;;;9.07;1.20;;;1.90;99.90;;;;;;5071476;28;20044;-85
2024/01/15 10:19:05;;;;;;;7.60;0.85;;;2.00;99.90;;;;;;5068443;28;20041;-85
2024/01/15 10:21:34;;;;;;;8.15;1.10;;;2.00;99.90;;;;;;5054700;28;20413;-85
2024/01/15 10:24:00;;;;;;;7.72;1.23;;;2.00;99.90;;;;;;5061301;28;20489;-85
2024/01/15 10:26:26;;;;;;;8.25;1.20;;;2.10;99.90;;;;;;5072331;28;20052;-86
2024/01/15 10:28:52;;;;;;;9.18;1.10;;;2.10;99.90;;;;;;5067614;28;20059;-85
2024/01/15 10:31:19;;;;;;;10.43;0.90;;;2.10;99.90;;;;;;5052812;28;20044;-85
2024/01/15 10:33:45;;;;;;;9.43;1.10;;;2.30;99.90;;;;;;5065391;28;20496;-85
2024/01/15 10:36:13;;;;;;;8.63;1.30;;;2.10;99.90;;;;;;5070876;28;20085;-85
2024/01/15 10:38:39;;;;;;;11.77;1.27;;;2.10;99.90;;;;;;5070486;28;20049;-82
2024/01/15 10:41:04;;;;;;;5.90;1.00;;;2.10;99.90;;;;;;5070758;28;20072;-84
2024/01/15 10:43:30;;;;;;;12.48;1.25;;;2.90;99.90;;;;;;5070683;28;20654;-84
2024/01/15 10:45:56;;;;;;;6.70;1.35;;;2.10;99.90;;;;;;5071305;28;20388;-84
2024/01/15 10:48:21;;;;;;;6.55;1.40;;;2.20;99.90;;;;;;5071184;28;20401;-85
2024/01/15 10:50:47;;;;;;;9.23;1.40;;;2.20;99.90;;;;;;5059806;28;20061;-83
2024/01/15 10:53:17;;;;;;;8.25;1.30;;;2.20;99.90;;;;;;5050959;28;20065;-84
2024/01/15 10:55:43;;;;;;;7.53;1.77;;;2.30;99.90;;;;;;5050794;28;20386;-86
2024/01/15 10:58:09;;;;;;;7.45;1.42;;;2.40;99.90;;;;;;5051321;28;20079;-86
2024/01/15 11:00:37;;;;;;;10.10;1.30;;;2.50;99.90;;;;;;5051239;28;20053;-85
2024/01/15 11:03:05;;;;;;;8.63;1.10;;;2.60;99.90;;;;;;5066294;28;20056;-85
2024/01/15 11:05:38;;;;;;;8.85;1.42;;;2.60;99.90;;;;;;5071402;28;20092;-86
2024/01/15 11:08:06;;;;;;;10.27;1.40;;;2.60;99.90;;;;;;5071058;28;20040;-83
2024/01/15 11:10:46;;;;;;;13.23;2.70;;;2.70;99.90;;;;;;5071079;28;20053;-85
2024/01/15 11:13:39;;;;;;;6.38;0.68;;;2.70;99.90;;;;;;5070598;28;20412;-82
2024/01/15 11:16:06;;;;;;;9.18;1.30;;;2.60;99.90;;;;;;5070955;28;20478;-84
2024/01/15 11:18:36;;;;;;;11.50;2.42;;;2.60;99.90;;;;;;5058394;28;20120;-85
2024/01/15 11:21:16;;;;;;;10.38;1.65;;;2.60;99.90;;;;;;5050288;28;20056;-82
2024/01/15 11:23:57;;;;;;;5.45;1.15;;;3.30;99.90;;;;;;5049825;28;20048;-86
2024/01/15 11:26:36;;;;;;;11.23;2.72;;;2.40;99.90;;;;;;5055027;28;20051;-88
2024/01/15 11:29:05;;;;;;;8.13;0.70;;;2.40;99.90;;;;;;5067087;28;20051;-85
2024/01/15 11:31:40;;;;;;;3.72;0.50;;;2.40;99.90;;;;;;5055975;28;20036;-85
2024/01/15 11:34:10;;;;;;;3.58;0.90;;;2.30;99.90;;;;;;5056171;28;20055;-84
2024/01/15 11:36:51;;;;;;;4.53;0.90;;;2.20;99.90;;;;;;5064624;28;20135;-85
2024/01/15 11:39:29;;;;;;;5.25;1.83;;;2.20;99.90;;;;;;5046236;28;20052;-85
2024/01/15 11:41:59;;;;;;;7.80;0.60;;;2.10;99.90;;;;;;5063493;28;20049;-85
2024/01/15 11:44:26;;;;;;;2.60;0.77;;;2.20;99.90;;;;;;5049409;28;20049;-81
2024/01/15 11:47:06;;;;;;;4.88;0.85;;;2.30;99.90;;;;;;5055931;28;20044;-88
2024/01/15 11:50:00;;;;;;;3.33;0.50;;;2.20;99.90;;;;;;5059113;28;20536;-89
2024/01/15 11:52:26;;;;;;;5.95;0.43;;;2.20;99.90;;;;;;5054079;28;20067;-85
2024/01/15 11:55:40;;;;;;;3.42;0.40;;;2.30;99.90;;;;;;5068001;28;20071;-83
2024/01/15 11:58:11;;;;;;;4.10;0.32;;;2.20;99.90;;;;;;5055819;28;20052;-84
2024/01/15 12:00:52;;;;;;;2.40;0.40;;;2.30;99.90;;;;;;5054718;28;20055;-84
2024/01/15 12:03:20;;;;;;;3.25;0.50;;;2.20;99.90;;;;;;5063222;28;20509;-83
2024/01/15 12:05:45;;;;;;;5.28;0.70;;;2.20;99.90;;;;;;5050612;28;20048;-82
2024/01/15 12:08:12;;;;;;;4.47;0.80;;;2.20;99.90;;;;;;5052027;28;20052;-82
2024/01/15 12:10:40;;;;;;;3.88;0.50;;;2.20;99.90;;;;;;5051650;28;20055;-82
2024/01/15 12:13:17;;;;;;;3.90;0.65;;;2.10;99.90;;;;;;5062244;28;20428;-85
2024/01/15 12:15:44;;;;;;;5.60;1.17;;;2.10;99.90;;;;;;5053355;28;20051;-82
2024/01/15 12:18:17;;;;;;;4.68;0.32;;;2.10;99.90;;;;;;5068150;28;20123;-85
2024/01/15 12:20:46;;;;;;;1.55;0.52;;;2.00;99.90;;;;;;5060530;28;20128;-84
2024/01/15 12:23:13;;;;;;;3.58;0.45;;;2.00;99.90;;;;;;5054517;28;20060;-85
2024/01/15 12:25:39;;;;;;;2.65;0.40;;;2.00;99.90;;;;;;5049769;28;20049;-84
2024/01/15 12:28:06;;;;;;;2.72;0.30;;;2.00;99.90;;;;;;5067084;28;20097;-84
2024/01/15 12:30:34;;;;;;;1.40;0.30;;;2.00;99.90;;;;;;5069116;28;20047;-85
2024/01/15 12:33:03;;;;;;;5.05;0.77;;;2.10;99.90;;;;;;5064486;28;20053;-85
2024/01/15 12:35:30;;;;;;;4.13;0.52;;;2.10;99.90;;;;;;5057003;28;20081;-84
2024/01/15 12:37:56;;;;;;;3.85;0.43;;;2.20;99.90;;;;;;5049724;28;20057;-84
2024/01/15 12:40:22;;;;;;;3.38;0.50;;;2.20;99.90;;;;;;5056645;28;20045;-84
2024/01/15 12:42:49;;;;;;;4.68;0.50;;;2.10;99.90;;;;;;5050992;28;20049;-84
2024/01/15 12:45:15;;;;;;;8.50;2.42;;;2.30;99.90;;;;;;5041964;28;20143;-84
2024/01/15 12:47:41;;;;;;;6.65;1.00;;;2.20;99.90;;;;;;5064324;28;20127;-85
2024/01/15 12:50:11;;;;;;;2.38;0.40;;;2.10;99.90;;;;;;5063930;28;20047;-86